Time;durP1;ratioP1;P1;durP2;ratioP2;P2;SDS_P1;SDS_P2;PMS_P1;PMS_P2;Temp;Humidity;BMP_temperature;BMP_pressure;BME280_temperature;BME280_humidity;BME280_pressure;Samples;Min_cycle;Max_cycle;Signal;HPM_P1;HPM_P2
2023/08/18 00:00:08;;;;;;;;;16.20;14.80;;;;;19.02;79.97;100067.66;4978230;28;8854;-87
2023/08/18 00:02:36;;;;;;;;;17.20;17.20;;;;;19.01;80.11;100060.56;4979002;28;8938;-88
2023/08/18 00:05:04;;;;;;;;;22.80;19.00;;;;;19.01;79.83;100057.88;4978263;28;8856;-87
2023/08/18 00:07:31;;;;;;;;;18.20;17.20;;;;;19.02;80.07;100067.66;4978078;28;8839;-88
2023/08/18 00:09:59;;;;;;;;;16.20;15.80;;;;;19.02;80.02;100056.84;4978184;28;9535;-87
2023/08/18 00:12:26;;;;;;;;;15.00;12.60;;;;;18.99;80.10;100051.81;4977970;28;8859;-87
2023/08/18 00:14:54;;;;;;;;;17.60;16.80;;;;;18.98;79.79;100054.66;4978187;28;8872;-87
2023/08/18 00:17:22;;;;;;;;;20.80;18.40;;;;;18.97;79.88;100056.50;4978318;28;8856;-88
2023/08/18 00:19:50;;;;;;;;;21.00;18.80;;;;;18.94;80.17;100048.78;4977548;28;9527;-87
2023/08/18 00:22:18;;;;;;;;;20.00;17.60;;;;;18.94;80.38;100047.91;4977971;28;9538;-87
2023/08/18 00:24:46;;;;;;;;;22.80;20.00;;;;;18.92;79.96;100049.94;4977940;28;8852;-87
2023/08/18 00:27:13;;;;;;;;;23.40;20.60;;;;;18.91;79.88;100048.28;4978139;28;8862;-87
2023/08/18 00:29:41;;;;;;;;;19.60;16.60;;;;;18.92;80.07;100045.41;4977925;28;8872;-87
2023/08/18 00:32:09;;;;;;;;;18.00;17.20;;;;;18.91;80.34;100048.28;4977484;28;8983;-87
2023/08/18 00:34:37;;;;;;;;;20.20;17.60;;;;;18.90;79.96;100047.41;4977874;28;8832;-89
2023/08/18 00:37:04;;;;;;;;;18.20;15.60;;;;;18.89;80.38;100044.91;4977056;28;8880;-89
2023/08/18 00:39:32;;;;;;;;;21.60;18.60;;;;;18.89;80.20;100047.59;4977748;28;8829;-89
2023/08/18 00:42:00;;;;;;;;;24.80;18.60;;;;;18.88;80.08;100040.53;4977609;28;8847;-89
2023/08/18 00:44:27;;;;;;;;;20.00;17.40;;;;;18.88;79.97;100038.66;4977768;28;8844;-88
2023/08/18 00:46:55;;;;;;;;;25.20;24.20;;;;;18.89;80.61;100042.22;4977732;28;8899;-89
2023/08/18 00:49:23;;;;;;;;;21.40;20.60;;;;;18.88;80.45;100046.75;4977671;28;8836;-89
2023/08/18 00:51:51;;;;;;;;;20.00;16.40;;;;;18.88;80.16;100040.53;4977495;28;8875;-89
2023/08/18 00:54:18;;;;;;;;;21.80;19.80;;;;;18.86;80.25;100032.59;4977450;28;8849;-89
2023/08/18 00:56:46;;;;;;;;;16.60;15.80;;;;;18.87;80.69;100036.97;4977617;28;8883;-89
2023/08/18 00:59:14;;;;;;;;;20.40;16.60;;;;;18.86;80.19;100032.59;4977122;28;8926;-89
2023/08/18 01:01:41;;;;;;;;;17.40;16.20;;;;;18.85;80.36;100036.31;4977546;28;8840;-89
2023/08/18 01:04:09;;;;;;;;;19.40;18.00;;;;;18.85;80.36;100027.38;4977353;28;8856;-89
2023/08/18 01:06:38;;;;;;;;;17.00;16.20;;;;;18.85;79.97;100025.53;4977280;28;8837;-89
2023/08/18 01:09:06;;;;;;;;;18.60;17.60;;;;;18.85;80.37;100020.13;4978249;28;8841;-89
2023/08/18 01:11:34;;;;;;;;;19.20;18.80;;;;;18.85;80.51;100017.44;4980331;28;8824;-89
2023/08/18 01:14:02;;;;;;;;;11.00;10.00;;;;;18.86;80.56;100018.25;4978968;28;9609;-89
2023/08/18 01:16:30;;;;;;;;;18.20;16.00;;;;;18.86;80.65;100008.31;4979565;28;8821;-89
2023/08/18 01:18:58;;;;;;;;;19.80;16.00;;;;;18.85;80.32;100003.94;4981360;28;8966;-89
2023/08/18 01:21:25;;;;;;;;;27.00;23.60;;;;;18.86;80.62;100000.22;4982417;28;8879;-89
2023/08/18 01:23:53;;;;;;;;;24.00;19.00;;;;;18.87;80.66;99999.19;4977036;28;8860;-89
2023/08/18 01:26:20;;;;;;;;;13.00;12.20;;;;;18.88;80.58;99995.47;4976771;28;8862;-89
2023/08/18 01:28:48;;;;;;;;;21.00;18.20;;;;;18.89;80.65;99989.06;4976861;28;8840;-89
2023/08/18 01:31:16;;;;;;;;;21.60;18.60;;;;;18.92;80.24;99991.44;4976525;28;8843;-89
2023/08/18 01:33:44;;;;;;;;;21.20;18.20;;;;;18.92;80.48;99996.81;4978186;28;8867;-89
2023/08/18 01:36:11;;;;;;;;;21.60;19.20;;;;;18.94;79.92;99994.78;4980401;28;8852;-89
2023/08/18 01:38:39;;;;;;;;;19.20;19.00;;;;;18.94;80.40;99991.22;4980086;28;8828;-88
2023/08/18 01:41:06;;;;;;;;;18.00;15.20;;;;;18.93;80.35;99990.41;4981071;28;8824;-88
2023/08/18 01:43:34;;;;;;;;;14.40;13.40;;;;;18.92;80.63;99996.81;4982620;28;8980;-89
2023/08/18 01:46:02;;;;;;;;;21.00;20.20;;;;;18.93;80.13;99993.09;4980105;28;8840;-88
2023/08/18 01:48:30;;;;;;;;;22.60;19.00;;;;;18.94;80.64;99989.38;4976271;28;8857;-89
2023/08/18 01:50:57;;;;;;;;;19.80;18.40;;;;;18.94;80.28;99986.69;4975955;28;8840;-88
2023/08/18 01:53:25;;;;;;;;;23.60;19.80;;;;;18.93;80.33;99986.84;4976362;28;8852;-89
2023/08/18 01:55:53;;;;;;;;;21.20;19.40;;;;;18.92;80.42;99975.22;4976607;28;8833;-89
2023/08/18 01:58:21;;;;;;;;;26.60;25.20;;;;;18.92;80.44;99985.16;4976423;28;9577;-88
2023/08/18 02:00:49;;;;;;;;;23.00;18.00;;;;;18.91;80.54;99984.31;4976202;28;8848;-88
2023/08/18 02:03:17;;;;;;;;;20.40;17.20;;;;;18.89;80.56;99975.56;4977117;28;8835;-89
2023/08/18 02:05:44;;;;;;;;;20.60;18.80;;;;;18.90;80.91;99982.63;4976192;28;9593;-88
2023/08/18 02:08:12;;;;;;;;;20.20;18.60;;;;;18.90;80.93;99971.84;4976167;28;8837;-88
2023/08/18 02:10:40;;;;;;;;;23.00;19.60;;;;;18.91;80.78;99975.41;4976517;28;8845;-88
2023/08/18 02:13:08;;;;;;;;;20.00;18.40;;;;;18.91;80.67;99975.41;4976383;28;8856;-88
2023/08/18 02:15:36;;;;;;;;;16.60;15.00;;;;;18.91;80.64;99970.81;4976334;28;8855;-89
2023/08/18 02:18:04;;;;;;;;;21.80;14.20;;;;;18.90;80.61;99971.84;4976880;28;8855;-89
2023/08/18 02:20:31;;;;;;;;;23.80;17.40;;;;;18.90;80.65;99966.44;4975527;28;8848;-89
2023/08/18 02:22:59;;;;;;;;;21.20;20.80;;;;;18.90;80.93;99969.13;4975676;28;8987;-88
2023/08/18 02:25:28;;;;;;;;;23.60;18.20;;;;;18.90;81.37;99968.31;4976078;28;8844;-88
2023/08/18 02:27:56;;;;;;;;;20.40;15.60;;;;;18.90;80.69;99957.53;4976390;28;8864;-89
2023/08/18 02:30:24;;;;;;;;;18.60;16.20;;;;;18.90;80.96;99963.75;4975938;28;8898;-89
2023/08/18 02:32:51;;;;;;;;;24.60;21.80;;;;;18.91;80.38;99957.31;4975934;28;8871;-88
2023/08/18 02:35:19;;;;;;;;;18.40;16.20;;;;;18.91;80.91;99962.72;4975980;28;8875;-88
2023/08/18 02:37:46;;;;;;;;;13.40;10.60;;;;;18.91;80.49;99957.31;4975714;28;8848;-89
2023/08/18 02:40:14;;;;;;;;;14.40;12.00;;;;;18.92;80.93;99963.56;4975810;28;8841;-88
2023/08/18 02:42:42;;;;;;;;;19.60;16.80;;;;;18.91;80.97;99961.91;4976040;28;8832;-89
2023/08/18 02:45:09;;;;;;;;;19.60;17.00;;;;;18.91;80.78;99954.63;4975960;28;8836;-89
2023/08/18 02:47:38;;;;;;;;;19.00;17.20;;;;;18.92;81.13;99947.38;4976057;28;8856;-88
2023/08/18 02:50:06;;;;;;;;;24.00;22.40;;;;;18.91;80.70;99951.94;4976491;28;8836;-88
2023/08/18 02:52:33;;;;;;;;;16.80;16.60;;;;;18.90;80.76;99952.94;4975841;28;8879;-89
2023/08/18 02:55:01;;;;;;;;;19.20;18.00;;;;;18.90;80.59;99950.25;4975554;28;8861;-89
2023/08/18 02:57:29;;;;;;;;;20.40;16.00;;;;;18.91;81.11;99962.72;4975808;28;8848;-88
2023/08/18 02:59:57;;;;;;;;;19.00;17.00;;;;;18.90;80.63;99955.66;4975319;28;8845;-88
2023/08/18 03:02:25;;;;;;;;;22.80;18.80;;;;;18.88;81.27;99957.69;4978378;28;8845;-88
2023/08/18 03:04:53;;;;;;;;;22.40;18.20;;;;;18.89;80.77;99959.38;4979297;28;8828;-88
2023/08/18 03:07:20;;;;;;;;;14.40;12.80;;;;;18.90;81.13;99961.03;4978678;28;8879;-88
2023/08/18 03:09:48;;;;;;;;;13.60;12.60;;;;;18.90;80.54;99954.81;4979769;28;8868;-88
2023/08/18 03:12:16;;;;;;;;;12.40;7.00;;;;;18.89;80.93;99964.75;4979285;28;8824;-89
2023/08/18 03:14:43;;;;;;;;;20.40;18.20;;;;;18.88;80.64;99962.25;4978549;28;8848;-88
2023/08/18 03:17:11;;;;;;;;;15.00;13.60;;;;;18.87;80.88;99963.25;4978936;28;8855;-88
2023/08/18 03:19:38;;;;;;;;;19.60;19.40;;;;;18.86;81.25;99957.03;4979526;28;8866;-88
2023/08/18 03:22:06;;;;;;;;;14.00;13.40;;;;;18.86;80.88;99966.97;4978464;28;8832;-88
2023/08/18 03:24:34;;;;;;;;;15.40;14.20;;;;;18.86;81.23;99970.53;4978715;28;8848;-88
2023/08/18 03:27:01;;;;;;;;;23.00;19.00;;;;;18.86;81.25;99964.28;4978750;28;8841;-88
2023/08/18 03:29:29;;;;;;;;;19.80;18.60;;;;;18.86;80.84;99959.72;4979238;28;9172;-88
2023/08/18 03:31:56;;;;;;;;;15.00;14.20;;;;;18.88;81.13;99960.38;4978739;28;8856;-88
2023/08/18 03:34:25;;;;;;;;;9.60;6.40;;;;;18.86;81.05;99951.63;4978051;28;8865;-88
2023/08/18 03:36:52;;;;;;;;;14.40;12.60;;;;;18.88;81.71;99951.47;4978865;28;8967;-88
2023/08/18 03:39:20;;;;;;;;;6.20;4.80;;;;;18.86;80.94;99945.38;4978486;28;9596;-87
2023/08/18 03:41:48;;;;;;;;;20.00;17.40;;;;;18.85;81.32;99946.41;4978190;28;8880;-87
2023/08/18 03:44:15;;;;;;;;;16.00;14.40;;;;;18.82;81.43;99944.88;4978767;28;8864;-87
2023/08/18 03:46:43;;;;;;;;;20.80;13.80;;;;;18.82;80.94;99944.88;4978691;28;8859;-88
2023/08/18 03:49:11;;;;;;;;;19.00;16.60;;;;;18.80;81.59;99944.22;4979098;28;8852;-87
2023/08/18 03:51:38;;;;;;;;;14.20;12.60;;;;;18.79;81.59;99939.84;4978822;28;8824;-88
2023/08/18 03:54:06;;;;;;;;;13.40;13.00;;;;;18.79;81.41;99937.16;4977904;28;8864;-87
2023/08/18 03:56:33;;;;;;;;;19.40;14.00;;;;;18.81;81.13;99943.22;4977625;28;8883;-88
2023/08/18 03:59:02;;;;;;;;;18.00;13.80;;;;;18.82;81.14;99944.88;4978296;28;8903;-88
2023/08/18 04:01:29;;;;;;;;;16.00;15.40;;;;;18.82;81.00;99939.47;4978939;28;8856;-88
2023/08/18 04:03:57;;;;;;;;;16.80;13.40;;;;;18.83;81.42;99940.34;4978096;28;8844;-88
2023/08/18 04:06:25;;;;;;;;;18.60;14.00;;;;;18.82;81.04;99947.59;4978015;28;8828;-88
2023/08/18 04:08:53;;;;;;;;;18.00;16.40;;;;;18.81;81.35;99943.22;4978077;28;8837;-88
2023/08/18 04:11:20;;;;;;;;;10.80;9.60;;;;;18.79;81.20;99936.28;4977544;28;8848;-87
2023/08/18 04:13:48;;;;;;;;;12.40;11.60;;;;;18.76;81.30;99932.06;4977836;28;8867;-88
2023/08/18 04:16:16;;;;;;;;;12.00;10.80;;;;;18.75;81.21;99929.59;4978042;28;8871;-87
2023/08/18 04:18:43;;;;;;;;;14.00;14.00;;;;;18.74;81.94;99936.81;4977563;28;8849;-88
2023/08/18 04:21:11;;;;;;;;;17.80;15.60;;;;;18.73;81.57;99943.22;4977340;28;8971;-87
2023/08/18 04:23:39;;;;;;;;;12.60;11.80;;;;;18.72;81.88;99948.78;4978684;28;9564;-88
2023/08/18 04:26:07;;;;;;;;;13.00;10.00;;;;;18.72;82.01;99946.94;4977443;28;8829;-88
2023/08/18 04:28:35;;;;;;;;;7.80;7.40;;;;;18.72;81.43;99935.31;4977333;28;8844;-88
2023/08/18 04:31:02;;;;;;;;;10.40;8.60;;;;;18.70;81.74;99932.81;4977326;28;9609;-88
2023/08/18 04:33:30;;;;;;;;;15.00;11.60;;;;;18.71;81.48;99939.88;4977170;28;8855;-88
2023/08/18 04:35:58;;;;;;;;;17.40;13.80;;;;;18.72;81.79;99935.31;4976699;28;8848;-88
2023/08/18 04:38:29;;;;;;;;;14.40;12.40;;;;;18.71;81.45;99945.28;4976981;28;8919;-88
2023/08/18 04:40:58;;;;;;;;;12.00;11.20;;;;;18.70;81.42;99946.28;4977555;28;8837;-88
2023/08/18 04:43:25;;;;;;;;;8.60;4.40;;;;;18.69;81.93;99944.63;4976700;28;8857;-88
2023/08/18 04:45:53;;;;;;;;;4.00;4.00;;;;;18.67;81.45;99938.53;4978635;28;8847;-89
2023/08/18 04:48:21;;;;;;;;;16.80;13.00;;;;;18.68;82.04;99944.78;4977722;28;8870;-88
2023/08/18 04:50:49;;;;;;;;;13.60;12.20;;;;;18.67;81.80;99951.19;4977403;28;9506;-88
2023/08/18 04:53:17;;;;;;;;;12.20;11.20;;;;;18.66;81.99;99949.50;4977122;28;8847;-89
2023/08/18 04:55:44;;;;;;;;;15.00;12.40;;;;;18.66;81.76;99944.94;4976659;28;8855;-88
2023/08/18 04:58:13;;;;;;;;;12.60;10.80;;;;;18.65;82.03;99939.72;4976865;28;8852;-90
2023/08/18 05:00:41;;;;;;;;;13.00;12.20;;;;;18.65;81.79;99945.97;4977084;28;8888;-90
2023/08/18 05:03:08;;;;;;;;;10.80;10.40;;;;;18.64;81.93;99949.69;4976754;28;8879;-90
2023/08/18 05:05:36;;;;;;;;;12.00;11.20;;;;;18.64;81.88;99946.97;4976459;28;8845;-90
2023/08/18 05:08:04;;;;;;;;;12.80;10.60;;;;;18.65;82.00;99940.56;4976548;28;8971;-89
2023/08/18 05:10:32;;;;;;;;;12.20;9.80;;;;;18.67;82.07;99943.91;4976107;28;8860;-89
2023/08/18 05:13:01;;;;;;;;;9.40;7.80;;;;;18.68;82.05;99951.00;4977298;28;8852;-90
2023/08/18 05:15:29;;;;;;;;;14.20;11.20;;;;;18.68;81.68;99939.38;4976352;28;8871;-87
2023/08/18 05:17:57;;;;;;;;;7.00;6.00;;;;;18.70;81.48;99942.75;4975796;28;8844;-87
2023/08/18 05:20:25;;;;;;;;;10.00;9.00;;;;;18.71;81.85;99947.97;4976007;28;8903;-87
2023/08/18 05:22:52;;;;;;;;;12.20;9.20;;;;;18.71;81.82;99956.06;4975030;28;8855;-88
2023/08/18 05:25:20;;;;;;;;;9.00;8.60;;;;;18.71;81.58;99956.06;4974930;28;8879;-88
2023/08/18 05:27:48;;;;;;;;;9.40;9.40;;;;;18.72;81.51;99960.44;4975040;28;8867;-88
2023/08/18 05:30:16;;;;;;;;;12.60;9.20;;;;;18.73;81.50;99958.59;4975248;28;8844;-88
2023/08/18 05:32:45;;;;;;;;;11.20;8.60;;;;;18.74;81.41;99961.09;4975430;28;8852;-88
2023/08/18 05:35:13;;;;;;;;;9.60;9.20;;;;;18.76;81.81;99963.63;4975518;28;8848;-88
2023/08/18 05:37:41;;;;;;;;;9.20;9.20;;;;;18.77;81.77;99960.78;4975015;28;8902;-90
2023/08/18 05:40:08;;;;;;;;;10.80;8.40;;;;;18.80;81.30;99959.56;4971621;28;8864;-90
2023/08/18 05:42:39;;;;;;;;;11.20;9.80;;;;;18.83;81.43;99960.06;4971273;28;9616;-90
2023/08/18 05:45:06;;;;;;;;;7.80;6.40;;;;;18.84;81.83;99964.47;4972717;28;8883;-90
2023/08/18 05:47:34;;;;;;;;;9.60;8.00;;;;;18.84;81.31;99967.16;4972989;28;8852;-90
2023/08/18 05:50:02;;;;;;;;;8.60;8.20;;;;;18.85;81.40;99968.84;4973200;28;8868;-90
2023/08/18 05:52:30;;;;;;;;;6.00;5.00;;;;;18.86;81.72;99964.28;4972536;28;8848;-90
2023/08/18 05:54:58;;;;;;;;;9.80;9.20;;;;;18.88;81.55;99960.38;4973397;28;8864;-90
2023/08/18 05:57:26;;;;;;;;;8.00;6.40;;;;;18.90;81.30;99958.34;4973296;28;8841;-90
2023/08/18 05:59:54;;;;;;;;;12.80;11.40;;;;;18.92;81.66;99961.72;4972808;28;8852;-90
2023/08/18 06:02:21;;;;;;;;;6.20;5.40;;;;;18.93;81.40;99952.63;4972383;28;9014;-90
2023/08/18 06:04:49;;;;;;;;;7.40;6.60;;;;;18.95;81.04;99958.69;4972293;28;9507;-90
2023/08/18 06:07:17;;;;;;;;;9.20;8.60;;;;;18.96;81.37;99965.75;4972655;28;8978;-89
2023/08/18 06:09:45;;;;;;;;;7.20;6.60;;;;;18.97;80.99;99967.44;4972436;28;9219;-90
2023/08/18 06:12:12;;;;;;;;;7.00;6.60;;;;;18.99;81.38;99960.03;4972678;28;8849;-89
2023/08/18 06:14:40;;;;;;;;;8.00;8.00;;;;;19.00;81.29;99958.16;4973153;28;9545;-90
2023/08/18 06:17:08;;;;;;;;;15.20;10.60;;;;;19.00;81.41;99958.16;4973211;28;8881;-89
2023/08/18 06:19:36;;;;;;;;;9.60;8.20;;;;;19.01;81.07;99955.28;4972641;28;8860;-90
2023/08/18 06:22:04;;;;;;;;;9.40;7.00;;;;;19.03;81.49;99961.34;4972804;28;8849;-90
2023/08/18 06:24:31;;;;;;;;;13.40;8.20;;;;;19.06;81.32;99954.75;4975033;28;8853;-90
2023/08/18 06:26:59;;;;;;;;;4.80;4.80;;;;;19.08;80.95;99958.97;4974091;28;8870;-90
2023/08/18 06:29:27;;;;;;;;;10.80;9.00;;;;;19.10;80.66;99959.63;4973957;28;8849;-90
2023/08/18 06:31:55;;;;;;;;;9.40;7.00;;;;;19.13;80.70;99959.25;4973587;28;8828;-89
2023/08/18 06:34:23;;;;;;;;;9.40;9.00;;;;;19.15;80.74;99965.34;4972659;28;8841;-90
2023/08/18 06:36:51;;;;;;;;;7.40;6.60;;;;;19.19;80.84;99972.09;4972778;28;9553;-90
2023/08/18 06:39:19;;;;;;;;;6.60;5.00;;;;;19.21;81.06;99967.34;4972951;28;8868;-90
2023/08/18 06:41:47;;;;;;;;;10.60;7.60;;;;;19.24;81.09;99969.72;4973600;28;8872;-90
2023/08/18 06:44:15;;;;;;;;;6.00;5.00;;;;;19.27;80.82;99974.75;4972745;28;8991;-89
2023/08/18 06:46:43;;;;;;;;;7.40;7.00;;;;;19.29;80.67;99970.03;4972782;28;8991;-90
2023/08/18 06:49:11;;;;;;;;;7.00;7.00;;;;;19.31;80.61;99973.41;4973326;28;8856;-90
2023/08/18 06:51:39;;;;;;;;;9.40;9.20;;;;;19.34;80.47;99964.94;4972786;28;8883;-90
2023/08/18 06:54:07;;;;;;;;;7.00;7.00;;;;;19.36;80.39;99976.38;4971525;28;8979;-90
2023/08/18 06:56:35;;;;;;;;;2.20;2.00;;;;;19.39;80.83;99967.09;4971837;28;9541;-90
2023/08/18 06:59:03;;;;;;;;;5.00;5.00;;;;;19.42;80.61;99967.59;4971056;28;8981;-90
2023/08/18 07:01:31;;;;;;;;;9.80;8.20;;;;;19.45;80.66;99963.69;4971776;28;8946;-90
2023/08/18 07:03:59;;;;;;;;;6.60;6.60;;;;;19.49;80.36;99970.44;4971734;28;8852;-89
2023/08/18 07:06:27;;;;;;;;;8.20;7.60;;;;;19.51;80.60;99963.81;4972155;28;8856;-90
2023/08/18 07:08:54;;;;;;;;;6.00;5.20;;;;;19.54;80.79;99968.03;4972723;28;9519;-89
2023/08/18 07:11:22;;;;;;;;;7.20;7.20;;;;;19.58;80.53;99974.78;4973546;28;8927;-90
2023/08/18 07:13:50;;;;;;;;;9.80;7.00;;;;;19.61;80.22;99966.28;4971970;28;8942;-89
2023/08/18 07:16:18;;;;;;;;;8.00;7.20;;;;;19.63;80.48;99965.09;4971890;28;8867;-90
2023/08/18 07:18:47;;;;;;;;;8.40;7.40;;;;;19.65;80.43;99973.84;4972569;28;8976;-90
2023/08/18 07:21:15;;;;;;;;;7.00;7.00;;;;;19.68;80.17;99972.66;4972529;28;8906;-90
2023/08/18 07:23:43;;;;;;;;;11.20;8.00;;;;;19.74;80.10;99969.25;4972448;28;8983;-90
2023/08/18 07:26:11;;;;;;;;;6.20;6.20;;;;;19.80;80.24;99969.38;4972071;28;8974;-90
2023/08/18 07:28:38;;;;;;;;;12.00;10.60;;;;;19.85;80.02;99974.22;4973599;28;8879;-90
2023/08/18 07:31:07;;;;;;;;;10.00;9.40;;;;;19.89;79.94;99976.38;4972812;28;8860;-89
2023/08/18 07:33:35;;;;;;;;;6.40;5.20;;;;;19.93;80.07;99975.03;4973197;28;8879;-90
2023/08/18 07:36:03;;;;;;;;;8.60;7.80;;;;;19.95;80.14;99975.66;4973665;28;8991;-89
2023/08/18 07:38:31;;;;;;;;;13.60;10.00;;;;;19.99;79.74;99968.91;4974405;28;9511;-90
2023/08/18 07:40:59;;;;;;;;;10.00;9.40;;;;;20.03;79.88;99959.38;4975401;28;8879;-89
2023/08/18 07:43:27;;;;;;;;;10.80;9.20;;;;;20.06;79.88;99967.19;4975808;28;8915;-89
2023/08/18 07:45:55;;;;;;;;;11.40;8.00;;;;;20.12;79.77;99968.31;4974662;28;8844;-90
2023/08/18 07:48:23;;;;;;;;;7.00;7.00;;;;;20.16;79.42;99966.94;4975627;28;9227;-89
2023/08/18 07:50:50;;;;;;;;;8.40;5.40;;;;;20.20;79.50;99966.38;4978472;28;9515;-89
2023/08/18 07:53:19;;;;;;;;;10.80;10.20;;;;;20.25;79.16;99974.78;4977227;28;8848;-89
2023/08/18 07:55:47;;;;;;;;;11.00;9.20;;;;;20.29;78.83;99976.09;4975467;28;9561;-89
2023/08/18 07:58:15;;;;;;;;;6.20;6.20;;;;;20.35;79.01;99966.41;4976353;28;8939;-89
2023/08/18 08:00:45;;;;;;;;;7.20;7.20;;;;;20.40;79.12;99970.25;4975988;28;8927;-89
2023/08/18 08:03:13;;;;;;;;;8.20;6.60;;;;;20.48;78.38;99967.44;4975377;28;8848;-89
2023/08/18 08:05:41;;;;;;;;;11.00;8.00;;;;;20.54;78.95;99961.31;4975781;28;9625;-89
2023/08/18 08:08:09;;;;;;;;;5.00;4.80;;;;;20.60;78.61;99957.00;4976091;28;8840;-89
2023/08/18 08:10:37;;;;;;;;;6.00;5.80;;;;;20.66;78.80;99954.44;4975795;28;8837;-89
2023/08/18 08:13:05;;;;;;;;;10.40;10.00;;;;;20.73;78.12;99965.34;4976675;28;9612;-89
2023/08/18 08:15:32;;;;;;;;;1.80;1.00;;;;;20.77;78.33;99962.06;4976312;28;8931;-89
2023/08/18 08:18:04;;;;;;;;;11.40;10.00;;;;;20.82;77.72;99965.88;4976675;28;8840;-88
2023/08/18 08:20:38;;;;;;;;;7.80;7.00;;;;;20.85;77.94;99964.69;4976553;28;8824;-89
2023/08/18 08:23:06;;;;;;;;;8.20;7.40;;;;;20.89;77.77;99955.22;4975587;28;8849;-89
2023/08/18 08:25:34;;;;;;;;;10.20;10.20;;;;;20.96;78.15;99951.53;4976414;28;8999;-89
2023/08/18 08:28:03;;;;;;;;;11.40;11.40;;;;;21.02;77.59;99949.97;4976366;28;8864;-88
2023/08/18 08:30:31;;;;;;;;;5.00;5.00;;;;;21.08;77.75;99957.31;4976480;28;8844;-89
2023/08/18 08:33:03;;;;;;;;;8.00;7.40;;;;;21.15;77.16;99952.84;4975958;28;8860;-89
2023/08/18 08:35:32;;;;;;;;;12.40;10.40;;;;;21.23;77.33;99952.72;4975383;28;9514;-89
2023/08/18 08:38:00;;;;;;;;;10.40;9.00;;;;;21.29;76.73;99947.41;4974390;28;8857;-89
2023/08/18 08:40:28;;;;;;;;;14.40;11.60;;;;;21.40;77.12;99943.38;4974617;28;8848;-89
2023/08/18 08:42:56;;;;;;;;;11.00;8.80;;;;;21.48;77.03;99938.66;4975347;28;8848;-88
2023/08/18 08:45:27;;;;;;;;;10.00;7.40;;;;;21.59;76.83;99938.16;4975902;28;8800;-89
2023/08/18 08:47:55;;;;;;;;;7.00;7.00;;;;;21.74;76.52;99944.41;4975716;28;8848;-89
2023/08/18 08:50:23;;;;;;;;;9.80;8.60;;;;;21.89;76.08;99942.47;4976189;28;8882;-89
2023/08/18 08:52:57;;;;;;;;;8.80;8.20;;;;;22.00;75.86;99935.69;4975461;28;8844;-88
2023/08/18 08:55:25;;;;;;;;;11.00;10.80;;;;;22.08;75.54;99938.28;4975100;28;8879;-89
2023/08/18 08:57:56;;;;;;;;;11.60;10.20;;;;;22.17;75.35;99939.81;4973857;28;8857;-88
2023/08/18 09:00:24;;;;;;;;;8.00;6.80;;;;;22.29;75.13;99940.94;4973886;28;8845;-89
2023/08/18 09:02:54;;;;;;;;;7.60;6.80;;;;;22.44;74.66;99947.97;4974236;28;8860;-88
2023/08/18 09:05:28;;;;;;;;;10.40;6.80;;;;;22.60;74.72;99944.97;4974785;28;8877;-88
2023/08/18 09:07:56;;;;;;;;;12.80;12.00;;;;;22.72;74.09;99939.81;4975232;28;8852;-88
2023/08/18 09:10:23;;;;;;;;;8.60;8.40;;;;;22.91;73.90;99939.09;4974798;28;8852;-89
2023/08/18 09:12:52;;;;;;;;;10.40;9.00;;;;;23.06;73.78;99926.22;4974453;28;8882;-89
2023/08/18 09:15:20;;;;;;;;;12.60;11.40;;;;;23.28;73.07;99917.78;4974180;28;8856;-88
2023/08/18 09:17:47;;;;;;;;;12.00;11.40;;;;;23.45;73.16;99924.50;4973935;28;8986;-89
2023/08/18 09:20:15;;;;;;;;;11.00;9.60;;;;;23.66;72.78;99913.47;4973501;28;9527;-88
2023/08/18 09:22:43;;;;;;;;;10.00;9.00;;;;;23.92;72.21;99915.44;4973886;28;9271;-89
2023/08/18 09:25:12;;;;;;;;;11.20;9.80;;;;;24.16;71.75;99917.53;4974072;28;9026;-89
2023/08/18 09:27:40;;;;;;;;;13.40;11.00;;;;;24.29;71.31;99914.81;4973405;28;8860;-89
2023/08/18 09:30:08;;;;;;;;;10.20;9.20;;;;;24.34;71.21;99912.31;4973772;28;8836;-89
2023/08/18 09:32:36;;;;;;;;;11.80;11.40;;;;;24.40;70.90;99915.03;4974991;28;8864;-88
2023/08/18 09:35:04;;;;;;;;;11.20;10.20;;;;;24.48;71.07;99911.22;4973269;28;9515;-88
2023/08/18 09:37:32;;;;;;;;;9.80;9.60;;;;;24.51;71.16;99908.09;4973527;28;8863;-88
2023/08/18 09:40:00;;;;;;;;;9.80;9.80;;;;;24.55;71.05;99909.34;4973063;28;8844;-88
2023/08/18 09:42:28;;;;;;;;;9.20;9.20;;;;;24.64;70.76;99905.41;4973672;28;8975;-89
2023/08/18 09:44:56;;;;;;;;;10.20;10.00;;;;;24.85;70.50;99914.13;4974001;28;8860;-88
2023/08/18 09:47:24;;;;;;;;;12.00;10.60;;;;;25.21;70.12;99902.66;4972929;28;8892;-89
2023/08/18 09:49:52;;;;;;;;;8.60;8.60;;;;;25.72;68.59;99907.88;4972631;28;8848;-88
2023/08/18 09:52:20;;;;;;;;;7.00;7.00;;;;;26.32;67.96;99898.19;4972746;28;8852;-89
2023/08/18 09:54:48;;;;;;;;;7.00;6.50;;;;;26.90;66.48;99896.78;4923800;28;1443161;-89
2023/08/18 09:57:15;;;;;;;;;13.40;12.00;;;;;27.40;66.35;99892.81;4973978;28;8861;-88
2023/08/18 09:59:44;;;;;;;;;10.80;10.20;;;;;27.85;65.26;99889.44;4973147;28;8840;-89
2023/08/18 10:02:12;;;;;;;;;12.00;11.40;;;;;28.30;64.36;99887.84;4972254;28;8888;-89
2023/08/18 10:04:43;;;;;;;;;9.00;8.60;;;;;28.76;63.84;99887.84;4973440;28;8882;-87
2023/08/18 10:07:11;;;;;;;;;8.40;8.00;;;;;29.19;63.36;99888.28;4973259;28;8887;-88
2023/08/18 10:09:39;;;;;;;;;11.20;9.20;;;;;29.59;62.50;99874.56;4974143;28;9625;-88
2023/08/18 10:12:07;;;;;;;;;10.00;9.00;;;;;29.82;62.30;99877.19;4974186;28;8844;-87
2023/08/18 10:14:36;;;;;;;;;8.60;8.60;;;;;30.03;62.31;99865.47;4974447;28;8852;-88
2023/08/18 10:17:07;;;;;;;;;10.20;9.40;;;;;30.29;61.94;99864.81;4973134;28;9387;-88
2023/08/18 10:19:37;;;;;;;;;7.80;7.60;;;;;30.49;61.79;99865.97;4974196;28;8848;-88
2023/08/18 10:22:05;;;;;;;;;11.20;10.00;;;;;30.74;61.32;99866.38;4973581;28;8860;-88
2023/08/18 10:24:33;;;;;;;;;9.00;8.20;;;;;31.07;60.71;99864.34;4973695;28;9195;-88
2023/08/18 10:27:01;;;;;;;;;11.80;9.80;;;;;31.45;59.85;99867.03;4973433;28;8852;-87
2023/08/18 10:29:28;;;;;;;;;5.00;5.00;;;;;31.64;59.64;99870.28;4973402;28;8983;-88
2023/08/18 10:32:02;;;;;;;;;9.80;9.40;;;;;31.85;59.59;99861.97;4973270;28;8832;-88
2023/08/18 10:34:30;;;;;;;;;12.00;11.00;;;;;32.16;58.78;99871.34;4973202;28;8991;-88
2023/08/18 10:36:57;;;;;;;;;10.00;7.00;;;;;32.41;58.75;99869.63;4971658;28;8840;-87
2023/08/18 10:39:29;;;;;;;;;10.40;10.00;;;;;32.70;57.61;99872.88;4974030;28;8844;-88
2023/08/18 10:41:57;;;;;;;;;11.60;10.20;;;;;32.85;57.81;99867.47;4971906;28;8875;-88
2023/08/18 10:44:24;;;;;;;;;13.00;13.00;;;;;32.86;58.31;99866.38;4971203;28;8891;-88
2023/08/18 10:46:52;;;;;;;;;8.00;8.00;;;;;32.88;57.44;99862.25;4971246;28;8936;-88
2023/08/18 10:49:20;;;;;;;;;10.00;8.40;;;;;33.13;58.03;99864.25;4971740;28;8840;-88
2023/08/18 10:51:48;;;;;;;;;8.80;8.60;;;;;33.43;56.74;99861.63;4972071;28;9007;-88
2023/08/18 10:54:16;;;;;;;;;13.40;11.80;;;;;33.58;56.41;99864.44;4971520;28;8856;-88
2023/08/18 10:56:44;;;;;;;;;11.80;10.00;;;;;33.63;56.56;99862.53;4971890;28;9311;-88
2023/08/18 10:59:11;;;;;;;;;8.60;8.00;;;;;33.78;56.75;99862.59;4971525;28;8938;-87
2023/08/18 11:01:39;;;;;;;;;11.40;10.60;;;;;34.08;55.71;99861.78;4971620;28;8875;-87
2023/08/18 11:04:07;;;;;;;;;10.60;9.40;;;;;34.39;55.82;99853.22;4972810;28;8857;-87
2023/08/18 11:06:35;;;;;;;;;10.40;10.20;;;;;34.49;54.89;99855.16;4972022;28;8992;-87
2023/08/18 11:09:04;;;;;;;;;11.20;10.60;;;;;34.61;54.67;99847.38;4971644;28;8852;-87
2023/08/18 11:11:32;;;;;;;;;12.60;12.20;;;;;34.87;54.61;99843.47;4972589;28;8923;-88
2023/08/18 11:14:00;;;;;;;;;9.60;9.40;;;;;35.09;53.83;99841.97;4972857;28;8927;-90
2023/08/18 11:16:28;;;;;;;;;12.60;12.20;;;;;35.19;54.35;99843.88;4972951;28;8864;-89
2023/08/18 11:18:56;;;;;;;;;10.60;10.60;;;;;35.38;53.35;99839.38;4973065;28;8871;-90
2023/08/18 11:21:24;;;;;;;;;12.60;11.60;;;;;35.65;53.60;99832.28;4971237;28;8860;-90
2023/08/18 11:23:51;;;;;;;;;11.80;11.20;;;;;35.81;53.13;99831.09;4975144;28;8856;-90
2023/08/18 11:26:19;;;;;;;;;11.00;10.20;;;;;35.97;52.91;99829.00;4975608;28;8856;-90
2023/08/18 11:28:47;;;;;;;;;14.00;14.00;;;;;36.17;52.48;99824.97;4975732;28;8849;-90
2023/08/18 11:31:15;;;;;;;;;12.00;11.60;;;;;36.35;52.06;99821.47;4976253;28;8916;-90